createdAt,value
2022-09-01T03:29:25.508Z,1.85
2022-09-01T03:31:52.365Z,1.40
2022-09-01T03:34:21.715Z,1.70
2022-09-01T03:36:51.032Z,1.45
2022-09-01T03:39:18.984Z,1.77
2022-09-01T03:41:45.817Z,1.60
2022-09-01T03:44:16.495Z,1.80
2022-09-01T03:46:44.017Z,1.77
2022-09-01T03:49:15.736Z,1.95
2022-09-01T03:51:45.648Z,1.73
2022-09-01T03:54:12.708Z,1.70
2022-09-01T03:56:42.069Z,2.03
2022-09-01T03:59:17.094Z,1.60
2022-09-01T04:01:45.505Z,1.65
2022-09-01T04:04:15.498Z,1.63
2022-09-01T04:06:43.880Z,2.20
2022-09-01T04:09:11.023Z,1.65
2022-09-01T04:11:42.554Z,1.65
2022-09-01T04:14:12.798Z,1.40
2022-09-01T04:16:58.194Z,2.33
2022-09-01T04:19:27.063Z,1.58
2022-09-01T04:21:56.922Z,1.40
2022-09-01T04:24:25.278Z,1.50
2022-09-01T04:26:52.831Z,1.35
2022-09-01T04:29:27.762Z,1.42
2022-09-01T04:32:05.384Z,1.52
2022-09-01T04:34:38.389Z,1.30
2022-09-01T04:37:15.013Z,1.42
2022-09-01T04:39:51.406Z,1.30
2022-09-01T04:42:24.286Z,1.50
2022-09-01T04:44:53.626Z,1.52
2022-09-01T04:47:35.516Z,2.00
2022-09-01T04:50:06.053Z,1.65
2022-09-01T04:52:32.589Z,2.00
2022-09-01T04:57:27.739Z,1.50
2022-09-01T04:59:56.954Z,2.28
2022-09-01T05:02:27.395Z,1.42
2022-09-01T05:04:58.793Z,1.50
2022-09-01T05:07:25.402Z,1.13
2022-09-01T05:12:27.992Z,1.60
2022-09-01T05:14:55.941Z,1.40
2022-09-01T05:17:23.446Z,1.40
2022-09-01T05:19:50.746Z,1.45
2022-09-01T05:22:23.162Z,1.33
2022-09-01T05:24:54.898Z,1.45
2022-09-01T05:27:22.985Z,1.23
2022-09-01T05:29:51.014Z,1.98
2022-09-01T05:32:17.584Z,1.60
2022-09-01T05:37:14.697Z,1.23
2022-09-01T05:39:41.276Z,1.40
2022-09-01T05:44:36.559Z,1.20
2022-09-01T05:47:05.558Z,1.73
2022-09-01T05:49:33.312Z,1.70
2022-09-01T05:52:00.560Z,1.45
2022-09-01T05:54:27.943Z,1.42
2022-09-01T05:57:12.808Z,1.40
2022-09-01T05:59:47.115Z,1.35
2022-09-01T06:02:13.846Z,1.38
2022-09-01T06:04:41.363Z,1.58
2022-09-01T06:07:11.878Z,2.03
2022-09-01T06:09:44.336Z,1.55
2022-09-01T06:12:18.613Z,1.50
2022-09-01T06:14:47.624Z,1.63
2022-09-01T06:17:16.830Z,2.03
2022-09-01T06:19:44.319Z,1.83
2022-09-01T06:22:11.829Z,1.67
2022-09-01T06:24:43.916Z,1.70
2022-09-01T06:27:11.824Z,1.95
2022-09-01T06:29:41.860Z,1.70
2022-09-01T06:32:12.624Z,1.90
2022-09-01T06:34:50.651Z,1.60
2022-09-01T06:37:22.574Z,1.90
2022-09-01T06:39:50.362Z,1.85
2022-09-01T06:42:17.577Z,1.63
2022-09-01T06:44:44.241Z,1.55
2022-09-01T06:49:40.210Z,1.42
2022-09-01T06:52:06.993Z,1.77
2022-09-01T06:54:34.749Z,2.08
2022-09-01T06:59:52.531Z,1.50
2022-09-01T07:02:22.368Z,1.85
2022-09-01T07:04:53.600Z,1.90
2022-09-01T07:10:23.736Z,1.70
2022-09-01T07:13:08.090Z,1.27
2022-09-01T07:18:29.088Z,1.50
2022-09-01T07:21:07.683Z,1.92
2022-09-01T07:23:46.639Z,1.53
2022-09-01T07:26:26.929Z,1.38
2022-09-01T07:29:01.048Z,1.50
2022-09-01T07:39:53.414Z,1.10
2022-09-01T07:45:26.041Z,1.33
2022-09-01T07:47:54.011Z,1.13
2022-09-01T07:50:38.689Z,1.20
2022-09-01T07:53:08.641Z,1.20
2022-09-01T07:55:35.555Z,1.02
2022-09-01T07:58:02.207Z,1.00
2022-09-01T08:00:31.405Z,1.38
2022-09-01T08:02:59.198Z,1.30
2022-09-01T08:05:27.415Z,1.20
2022-09-01T08:07:54.630Z,1.20
2022-09-01T08:10:21.662Z,1.20
2022-09-01T08:12:56.203Z,1.25
2022-09-01T08:15:41.020Z,1.17
2022-09-01T08:18:08.971Z,1.20
2022-09-01T08:20:39.953Z,1.10
2022-09-01T08:23:07.321Z,1.02
2022-09-01T08:25:36.430Z,1.00
2022-09-01T08:28:03.394Z,1.10
2022-09-01T08:30:32.544Z,1.13
2022-09-01T08:33:10.290Z,1.00
2022-09-01T08:35:39.757Z,1.00
2022-09-01T08:38:06.439Z,1.70
2022-09-01T08:40:33.311Z,1.00
2022-09-01T08:43:19.746Z,1.02
2022-09-01T08:45:53.687Z,1.17
2022-09-01T08:52:12.682Z,1.10
2022-09-01T08:54:46.722Z,1.08
2022-09-01T08:57:19.508Z,0.93
2022-09-01T08:59:46.641Z,1.05
2022-09-01T09:02:23.752Z,1.13
2022-09-01T09:05:18.240Z,1.27
2022-09-01T09:08:06.497Z,1.17
2022-09-01T09:11:21.807Z,1.10
2022-09-01T09:14:11.855Z,0.90
2022-09-01T09:16:44.021Z,1.15
2022-09-01T09:19:18.940Z,1.15
2022-09-01T09:21:47.894Z,1.00
2022-09-01T09:24:26.277Z,0.95
2022-09-01T09:26:59.119Z,0.80
2022-09-01T09:29:27.322Z,0.88
2022-09-01T09:32:22.172Z,0.82
2022-09-01T09:34:49.696Z,0.80
2022-09-01T09:37:30.365Z,1.23
2022-09-01T09:40:25.462Z,0.70
2022-09-01T09:42:55.076Z,2.35
2022-09-01T09:45:23.961Z,0.80
2022-09-01T09:47:52.005Z,0.85
2022-09-01T09:50:23.486Z,1.10
2022-09-01T09:52:53.149Z,0.85
2022-09-01T09:55:30.953Z,0.80
2022-09-01T09:58:09.597Z,0.95
2022-09-01T10:00:36.656Z,0.80
2022-09-01T10:03:14.347Z,0.85
2022-09-01T10:05:48.424Z,0.90
2022-09-01T10:08:38.274Z,0.80
2022-09-01T10:11:06.650Z,0.90
2022-09-01T10:13:36.840Z,1.13
2022-09-01T10:16:21.863Z,0.98
2022-09-01T10:18:51.371Z,0.70
2022-09-01T10:21:22.472Z,0.80
2022-09-01T10:23:49.021Z,0.70
2022-09-01T10:26:23.578Z,0.70
2022-09-01T10:29:15.819Z,1.05
2022-09-01T10:31:43.534Z,0.60
2022-09-01T10:34:19.361Z,0.70
2022-09-01T10:36:54.917Z,0.80
2022-09-01T10:39:30.521Z,0.70
2022-09-01T10:42:09.062Z,0.75
2022-09-01T10:44:57.735Z,0.70
2022-09-01T10:47:34.157Z,0.80
2022-09-01T10:50:09.938Z,0.80
2022-09-01T10:52:43.304Z,0.70
2022-09-01T10:55:24.585Z,0.63
2022-09-01T11:01:48.301Z,0.80
2022-09-01T11:04:18.484Z,0.90
2022-09-01T11:07:13.306Z,0.80
2022-09-01T11:09:46.010Z,0.63
2022-09-01T11:12:38.439Z,0.70
2022-09-01T11:15:26.777Z,0.60
2022-09-01T11:17:53.356Z,0.80
2022-09-01T11:20:39.739Z,0.80
2022-09-01T11:23:11.709Z,0.60
2022-09-01T11:25:44.523Z,0.60
2022-09-01T11:28:23.494Z,0.60
2022-09-01T11:31:08.818Z,0.70
2022-09-01T11:33:49.255Z,0.80
2022-09-01T11:36:20.146Z,0.60
2022-09-01T11:38:50.623Z,0.60
2022-09-01T11:41:47.696Z,1.15
2022-09-01T11:44:27.203Z,0.85
2022-09-01T11:47:02.375Z,0.70
2022-09-01T11:49:39.471Z,0.60
2022-09-01T11:52:06.723Z,0.75
2022-09-01T11:54:43.848Z,0.80
2022-09-01T11:57:24.421Z,1.85
2022-09-01T11:59:51.604Z,0.55
2022-09-01T12:02:42.160Z,0.70
2022-09-01T12:05:27.633Z,0.93
2022-09-01T12:07:55.111Z,0.73
2022-09-01T12:10:40.459Z,0.70
2022-09-01T12:13:08.341Z,0.60
2022-09-01T12:15:43.429Z,0.70
2022-09-01T12:20:57.298Z,0.70
2022-09-01T12:23:28.803Z,0.70
2022-09-01T12:25:58.436Z,0.50
2022-09-01T12:28:31.179Z,0.70
2022-09-01T12:31:07.502Z,0.60
2022-09-01T12:33:35.041Z,0.90
2022-09-01T12:36:31.889Z,0.70
2022-09-01T12:39:22.418Z,0.80
2022-09-01T12:42:11.529Z,0.88
2022-09-01T12:44:38.195Z,0.77
2022-09-01T12:47:08.003Z,0.60
2022-09-01T12:49:50.841Z,0.60
2022-09-01T12:52:25.508Z,0.50
2022-09-01T12:55:12.485Z,0.70
2022-09-01T12:57:48.637Z,0.65
2022-09-01T13:00:33.701Z,0.60
2022-09-01T13:03:05.118Z,0.60
2022-09-01T13:05:42.189Z,0.65
2022-09-01T13:08:22.809Z,0.65
2022-09-01T13:10:53.501Z,0.60
2022-09-01T13:13:21.834Z,0.65
2022-09-01T13:15:51.297Z,0.80
2022-09-01T13:18:19.476Z,0.60
2022-09-01T13:20:46.213Z,0.65
2022-09-01T13:23:12.969Z,0.52
2022-09-01T13:25:40.731Z,0.90
2022-09-01T13:28:08.991Z,0.60
2022-09-01T13:30:35.634Z,0.70
2022-09-01T13:33:19.164Z,0.63
2022-09-01T13:35:50.053Z,0.70
2022-09-01T13:38:18.139Z,0.63
2022-09-01T13:40:47.290Z,0.60
2022-09-01T13:43:15.672Z,0.60
2022-09-01T13:45:43.270Z,0.90
2022-09-01T13:48:16.246Z,0.75
2022-09-01T13:53:33.265Z,0.60
2022-09-01T13:55:59.884Z,0.60
2022-09-01T13:58:26.626Z,0.60
2022-09-01T14:00:53.273Z,0.90
2022-09-01T14:03:23.076Z,0.50
2022-09-01T14:05:50.686Z,0.77
2022-09-01T14:08:19.881Z,0.70
2022-09-01T14:10:51.016Z,0.68
2022-09-01T14:13:19.658Z,0.60
2022-09-01T14:15:47.219Z,0.50
2022-09-01T14:18:16.408Z,0.60
2022-09-01T14:20:45.792Z,0.60
2022-09-01T14:23:14.399Z,0.65
2022-09-01T14:25:46.731Z,0.68
2022-09-01T14:28:13.847Z,0.70
2022-09-01T14:30:43.472Z,0.57
2022-09-01T14:33:11.543Z,0.60
2022-09-01T14:35:45.067Z,0.60
2022-09-01T14:38:13.659Z,0.55
2022-09-01T14:40:41.626Z,0.70
2022-09-01T14:43:11.863Z,0.50
2022-09-01T14:45:38.709Z,0.80
2022-09-01T14:48:05.663Z,0.70
2022-09-01T14:50:32.864Z,0.60
2022-09-01T14:53:01.235Z,0.68
2022-09-01T14:55:30.662Z,0.50
2022-09-01T14:57:58.484Z,0.50
2022-09-01T15:00:25.456Z,0.55
2022-09-01T15:02:54.115Z,0.60
2022-09-01T15:05:21.400Z,1.30
2022-09-01T15:07:48.184Z,0.50
2022-09-01T15:10:25.225Z,0.60
2022-09-01T15:12:54.255Z,0.70
2022-09-01T15:15:20.792Z,0.70
2022-09-01T15:17:47.408Z,0.93
2022-09-01T15:20:33.453Z,0.60
2022-09-01T15:23:01.542Z,0.80
2022-09-01T15:25:28.162Z,0.90
2022-09-01T15:27:54.733Z,0.70
2022-09-01T15:30:22.679Z,0.70
2022-09-01T15:32:53.053Z,0.60
2022-09-01T15:35:22.277Z,0.70
2022-09-01T15:37:50.432Z,0.52
2022-09-01T15:40:18.464Z,0.55
2022-09-01T15:42:45.411Z,0.57
2022-09-01T15:45:16.101Z,0.85
2022-09-01T15:47:45.655Z,0.60
2022-09-01T15:50:16.888Z,0.70
2022-09-01T15:52:50.158Z,0.60
2022-09-01T15:55:25.746Z,0.70
2022-09-01T15:57:55.022Z,0.90
2022-09-01T16:00:24.808Z,0.60
2022-09-01T16:03:32.211Z,0.80
2022-09-01T16:06:21.821Z,0.65
2022-09-01T16:08:48.538Z,0.60
2022-09-01T16:11:35.413Z,0.65
2022-09-01T16:16:59.942Z,0.60
2022-09-01T16:19:35.839Z,1.40
2022-09-01T16:22:27.030Z,0.60
2022-09-01T16:24:57.877Z,0.57
2022-09-01T16:27:33.080Z,0.55
2022-09-01T16:30:06.554Z,0.70
2022-09-01T16:32:33.729Z,0.70
2022-09-01T16:35:04.036Z,0.75
2022-09-01T16:37:39.756Z,0.75
2022-09-01T16:40:29.953Z,0.83
2022-09-01T16:43:09.758Z,0.60
2022-09-01T16:46:05.510Z,0.60
2022-09-01T16:49:06.062Z,0.60
2022-09-01T16:52:08.222Z,0.57
2022-09-01T16:54:53.442Z,0.70
2022-09-01T16:57:22.966Z,0.55
2022-09-01T17:00:00.598Z,0.70
2022-09-01T17:02:52.624Z,0.70
2022-09-01T17:05:31.176Z,1.00
2022-09-01T17:07:58.120Z,0.70
2022-09-01T17:10:24.931Z,0.60
2022-09-01T17:12:56.232Z,0.70
2022-09-01T17:15:40.787Z,0.60
2022-09-01T17:18:22.814Z,0.80
2022-09-01T17:20:58.449Z,0.70
2022-09-01T17:23:29.847Z,0.80
2022-09-01T17:26:15.859Z,0.90
2022-09-01T17:29:12.059Z,0.98
2022-09-01T17:32:14.173Z,1.02
2022-09-01T17:34:56.095Z,0.90
2022-09-01T17:37:38.616Z,0.80
2022-09-01T17:40:33.057Z,0.80
2022-09-01T17:43:04.923Z,0.60
2022-09-01T17:45:51.217Z,0.70
2022-09-01T17:48:36.060Z,0.70
2022-09-01T17:51:23.564Z,0.88
2022-09-01T17:54:08.892Z,0.70
2022-09-01T17:57:09.379Z,0.57
2022-09-01T17:59:46.529Z,0.65
2022-09-01T18:02:44.784Z,0.90
2022-09-01T18:05:13.104Z,0.70
2022-09-01T18:07:58.474Z,0.60
2022-09-01T18:10:30.820Z,0.70
2022-09-01T18:13:03.669Z,0.80
2022-09-01T18:15:45.163Z,0.80
2022-09-01T18:18:27.549Z,0.70
2022-09-01T18:21:03.254Z,0.80
2022-09-01T18:23:32.296Z,0.80
2022-09-01T18:26:22.232Z,0.88
2022-09-01T18:28:53.758Z,0.70
2022-09-01T18:31:23.189Z,0.80
2022-09-01T18:34:42.257Z,0.73
2022-09-01T18:40:04.808Z,0.90
2022-09-01T18:42:39.825Z,0.80
2022-09-01T18:45:25.228Z,0.80
2022-09-01T18:48:06.262Z,0.95
2022-09-01T18:50:47.086Z,0.80
2022-09-01T18:53:26.725Z,0.70
2022-09-01T18:56:35.588Z,0.80
2022-09-01T18:59:32.170Z,0.90
2022-09-01T19:02:34.682Z,0.80
2022-09-01T19:05:35.602Z,1.20
2022-09-01T19:08:20.842Z,0.93
2022-09-01T19:11:03.770Z,0.95
2022-09-01T19:14:01.129Z,0.80
2022-09-01T19:16:45.362Z,0.80
2022-09-01T19:19:29.723Z,0.80
2022-09-01T19:21:56.447Z,1.00
2022-09-01T19:24:47.072Z,0.85
2022-09-01T19:27:16.936Z,1.02
2022-09-01T19:29:57.800Z,0.93
2022-09-01T19:32:28.748Z,1.63
2022-09-01T19:35:11.810Z,1.23
2022-09-01T19:37:40.468Z,1.33
2022-09-01T19:40:08.742Z,1.33
2022-09-01T19:42:42.417Z,0.90
2022-09-01T19:45:15.072Z,1.10
2022-09-01T19:48:05.945Z,0.98
2022-09-01T19:50:41.432Z,1.08
2022-09-01T19:53:30.982Z,1.00
2022-09-01T19:56:09.732Z,0.93
2022-09-01T19:58:49.561Z,0.90
2022-09-01T20:01:22.817Z,0.90
2022-09-01T20:04:01.026Z,1.10
2022-09-01T20:06:34.303Z,0.90
2022-09-01T20:09:06.164Z,0.73
2022-09-01T20:11:43.293Z,1.00
2022-09-01T20:14:33.813Z,0.90
2022-09-01T20:17:04.546Z,1.17
2022-09-01T20:19:42.526Z,0.90
2022-09-01T20:22:31.387Z,1.08
2022-09-01T20:25:09.772Z,0.82
2022-09-01T20:28:00.897Z,0.90
2022-09-01T20:30:37.137Z,0.80
2022-09-01T20:33:12.358Z,1.10
2022-09-01T20:36:02.393Z,0.85
2022-09-01T20:39:02.533Z,0.82
2022-09-01T20:41:45.581Z,0.90
2022-09-01T20:44:26.512Z,1.10
2022-09-01T20:46:53.073Z,1.80
2022-09-01T20:52:07.202Z,1.27
2022-09-01T20:54:46.325Z,1.00
2022-09-01T20:58:00.514Z,1.40
2022-09-01T21:00:29.863Z,2.10
2022-09-01T21:03:15.214Z,1.67
2022-09-01T21:06:17.305Z,1.30
2022-09-01T21:08:56.774Z,1.70
2022-09-01T21:11:40.981Z,1.08
2022-09-01T21:14:31.604Z,1.10
2022-09-01T21:17:07.795Z,1.08
2022-09-01T21:19:40.314Z,1.10
2022-09-01T21:22:08.442Z,1.45
2022-09-01T21:24:35.722Z,1.15
2022-09-01T21:27:07.278Z,1.10
2022-09-01T21:29:55.463Z,1.02
2022-09-01T21:32:22.659Z,1.10
2022-09-01T21:34:50.607Z,1.40
2022-09-01T21:37:18.499Z,1.02
2022-09-01T21:39:45.391Z,1.20
2022-09-01T21:42:13.143Z,1.35
2022-09-01T21:44:40.690Z,1.65
2022-09-01T21:47:07.311Z,0.88
2022-09-01T21:49:33.827Z,0.90
2022-09-01T21:54:26.990Z,1.00
2022-09-01T21:56:53.497Z,1.10
2022-09-01T22:01:47.234Z,0.90
2022-09-01T22:04:14.300Z,1.00
2022-09-01T22:06:40.963Z,1.30
2022-09-01T22:09:20.733Z,0.82
2022-09-01T22:11:49.828Z,0.90
2022-09-01T22:14:16.898Z,1.20
2022-09-01T22:16:43.511Z,1.10
2022-09-01T22:19:10.017Z,1.10
2022-09-01T22:24:04.228Z,1.10
2022-09-01T22:26:32.643Z,1.00
2022-09-01T22:29:01.072Z,1.00
2022-09-01T22:31:30.328Z,1.08
2022-09-01T22:33:57.164Z,1.00
